sensor_id;sensor_type;location;lat;lon;timestamp;temperature;humidity
47757;SHT35;22147;52.388;13.390;2023-02-25T00:02:06;4.05;88.88
47757;SHT35;22147;52.388;13.390;2023-02-25T00:04:35;3.97;88.89
47757;SHT35;22147;52.388;13.390;2023-02-25T00:07:03;3.95;89.22
47757;SHT35;22147;52.388;13.390;2023-02-25T00:09:31;4.05;89.16
47757;SHT35;22147;52.388;13.390;2023-02-25T00:12:00;4.05;88.84
47757;SHT35;22147;52.388;13.390;2023-02-25T00:14:28;3.95;89.25
47757;SHT35;22147;52.388;13.390;2023-02-25T00:16:57;3.91;89.11
47757;SHT35;22147;52.388;13.390;2023-02-25T00:19:25;3.88;89.27
47757;SHT35;22147;52.388;13.390;2023-02-25T00:21:53;3.84;89.45
47757;SHT35;22147;52.388;13.390;2023-02-25T00:24:22;3.88;89.64
47757;SHT35;22147;52.388;13.390;2023-02-25T00:26:50;3.86;89.68
47757;SHT35;22147;52.388;13.390;2023-02-25T00:29:19;3.86;89.73
47757;SHT35;22147;52.388;13.390;2023-02-25T00:31:47;3.95;89.72
47757;SHT35;22147;52.388;13.390;2023-02-25T00:34:15;3.81;89.74
47757;SHT35;22147;52.388;13.390;2023-02-25T00:36:44;3.87;89.73
47757;SHT35;22147;52.388;13.390;2023-02-25T00:39:12;3.88;89.64
47757;SHT35;22147;52.388;13.390;2023-02-25T00:41:41;3.86;89.62
47757;SHT35;22147;52.388;13.390;2023-02-25T00:44:09;3.90;89.29
47757;SHT35;22147;52.388;13.390;2023-02-25T00:46:38;3.80;90.02
47757;SHT35;22147;52.388;13.390;2023-02-25T00:49:06;3.90;90.21
47757;SHT35;22147;52.388;13.390;2023-02-25T00:51:37;3.71;89.72
47757;SHT35;22147;52.388;13.390;2023-02-25T00:54:07;3.39;88.68
47757;SHT35;22147;52.388;13.390;2023-02-25T00:56:37;2.94;88.57
47757;SHT35;22147;52.388;13.390;2023-02-25T00:59:07;2.60;90.20
47757;SHT35;22147;52.388;13.390;2023-02-25T01:01:39;2.61;90.52
47757;SHT35;22147;52.388;13.390;2023-02-25T01:04:09;2.65;90.58
47757;SHT35;22147;52.388;13.390;2023-02-25T01:06:40;2.77;90.43
47757;SHT35;22147;52.388;13.390;2023-02-25T01:09:11;2.70;90.39
47757;SHT35;22147;52.388;13.390;2023-02-25T01:11:47;2.81;91.04
47757;SHT35;22147;52.388;13.390;2023-02-25T01:14:22;2.78;90.80
47757;SHT35;22147;52.388;13.390;2023-02-25T01:16:53;2.80;91.16
47757;SHT35;22147;52.388;13.390;2023-02-25T01:19:27;2.90;91.16
47757;SHT35;22147;52.388;13.390;2023-02-25T01:21:58;2.98;91.26
47757;SHT35;22147;52.388;13.390;2023-02-25T01:24:32;3.02;90.85
47757;SHT35;22147;52.388;13.390;2023-02-25T01:27:03;3.02;91.05
47757;SHT35;22147;52.388;13.390;2023-02-25T01:29:38;3.12;91.31
47757;SHT35;22147;52.388;13.390;2023-02-25T01:32:13;3.12;91.27
47757;SHT35;22147;52.388;13.390;2023-02-25T01:34:44;3.22;91.32
47757;SHT35;22147;52.388;13.390;2023-02-25T01:37:14;3.26;91.02
47757;SHT35;22147;52.388;13.390;2023-02-25T01:39:44;3.28;90.98
47757;SHT35;22147;52.388;13.390;2023-02-25T01:42:16;3.33;91.17
47757;SHT35;22147;52.388;13.390;2023-02-25T01:48:05;3.26;90.99
47757;SHT35;22147;52.388;13.390;2023-02-25T01:50:53;3.36;90.96
47757;SHT35;22147;52.388;13.390;2023-02-25T01:53:34;3.30;90.75
47757;SHT35;22147;52.388;13.390;2023-02-25T01:56:09;3.35;90.45
47757;SHT35;22147;52.388;13.390;2023-02-25T01:58:40;3.33;90.48
47757;SHT35;22147;52.388;13.390;2023-02-25T02:01:20;3.38;90.78
47757;SHT35;22147;52.388;13.390;2023-02-25T02:03:51;3.38;90.59
47757;SHT35;22147;52.388;13.390;2023-02-25T02:06:35;3.38;90.60
47757;SHT35;22147;52.388;13.390;2023-02-25T02:09:12;3.50;90.58
47757;SHT35;22147;52.388;13.390;2023-02-25T02:11:42;3.46;89.89
47757;SHT35;22147;52.388;13.390;2023-02-25T02:14:23;3.33;90.40
47757;SHT35;22147;52.388;13.390;2023-02-25T02:17:31;3.55;89.87
47757;SHT35;22147;52.388;13.390;2023-02-25T02:20:19;3.50;90.01
47757;SHT35;22147;52.388;13.390;2023-02-25T02:27:31;3.53;89.46
47757;SHT35;22147;52.388;13.390;2023-02-25T02:43:45;3.46;88.79
47757;SHT35;22147;52.388;13.390;2023-02-25T02:46:39;3.64;87.82
47757;SHT35;22147;52.388;13.390;2023-02-25T02:52:03;3.67;87.52
47757;SHT35;22147;52.388;13.390;2023-02-25T02:54:40;3.55;87.98
47757;SHT35;22147;52.388;13.390;2023-02-25T02:57:16;3.55;87.98
47757;SHT35;22147;52.388;13.390;2023-02-25T03:00:12;3.56;87.52
47757;SHT35;22147;52.388;13.390;2023-02-25T03:03:01;3.66;86.84
47757;SHT35;22147;52.388;13.390;2023-02-25T03:05:40;3.56;87.02
47757;SHT35;22147;52.388;13.390;2023-02-25T03:08:33;3.64;86.61
47757;SHT35;22147;52.388;13.390;2023-02-25T03:11:05;3.62;87.16
47757;SHT35;22147;52.388;13.390;2023-02-25T03:13:35;3.64;86.67
47757;SHT35;22147;52.388;13.390;2023-02-25T03:16:23;3.62;86.84
47757;SHT35;22147;52.388;13.390;2023-02-25T03:19:11;3.49;87.42
47757;SHT35;22147;52.388;13.390;2023-02-25T03:21:53;3.60;87.36
47757;SHT35;22147;52.388;13.390;2023-02-25T03:24:45;3.55;87.83
47757;SHT35;22147;52.388;13.390;2023-02-25T03:27:32;3.46;87.95
47757;SHT35;22147;52.388;13.390;2023-02-25T03:30:30;3.38;88.65
47757;SHT35;22147;52.388;13.390;2023-02-25T03:36:39;3.49;87.59
47757;SHT35;22147;52.388;13.390;2023-02-25T03:39:25;3.47;87.16
47757;SHT35;22147;52.388;13.390;2023-02-25T03:42:01;3.46;87.32
47757;SHT35;22147;52.388;13.390;2023-02-25T03:44:49;3.35;87.63
47757;SHT35;22147;52.388;13.390;2023-02-25T03:47:25;3.40;87.51
47757;SHT35;22147;52.388;13.390;2023-02-25T03:50:33;3.40;87.13
47757;SHT35;22147;52.388;13.390;2023-02-25T03:53:04;3.30;86.77
47757;SHT35;22147;52.388;13.390;2023-02-25T03:55:34;3.33;87.31
47757;SHT35;22147;52.388;13.390;2023-02-25T03:58:08;3.43;87.00
47757;SHT35;22147;52.388;13.390;2023-02-25T04:00:46;3.36;86.67
47757;SHT35;22147;52.388;13.390;2023-02-25T04:03:17;3.28;87.56
47757;SHT35;22147;52.388;13.390;2023-02-25T04:05:47;3.35;87.38
47757;SHT35;22147;52.388;13.390;2023-02-25T04:08:17;3.38;87.46
47757;SHT35;22147;52.388;13.390;2023-02-25T04:10:48;3.26;87.35
47757;SHT35;22147;52.388;13.390;2023-02-25T04:13:18;3.15;88.42
47757;SHT35;22147;52.388;13.390;2023-02-25T04:15:49;3.13;88.50
47757;SHT35;22147;52.388;13.390;2023-02-25T04:18:19;3.23;88.03
47757;SHT35;22147;52.388;13.390;2023-02-25T04:20:50;3.16;88.06
47757;SHT35;22147;52.388;13.390;2023-02-25T04:23:21;3.08;88.62
47757;SHT35;22147;52.388;13.390;2023-02-25T04:25:51;2.95;88.72
47757;SHT35;22147;52.388;13.390;2023-02-25T04:28:19;2.98;89.20
47757;SHT35;22147;52.388;13.390;2023-02-25T04:30:48;2.97;89.26
47757;SHT35;22147;52.388;13.390;2023-02-25T04:33:16;2.78;90.05
47757;SHT35;22147;52.388;13.390;2023-02-25T04:35:45;2.84;90.30
47757;SHT35;22147;52.388;13.390;2023-02-25T04:38:13;2.90;89.86
47757;SHT35;22147;52.388;13.390;2023-02-25T04:40:42;2.87;89.99
47757;SHT35;22147;52.388;13.390;2023-02-25T04:43:11;2.88;89.92
47757;SHT35;22147;52.388;13.390;2023-02-25T04:45:41;2.85;89.77
47757;SHT35;22147;52.388;13.390;2023-02-25T04:48:11;2.92;89.79
47757;SHT35;22147;52.388;13.390;2023-02-25T04:50:41;2.88;89.55
47757;SHT35;22147;52.388;13.390;2023-02-25T04:53:11;2.85;90.07
47757;SHT35;22147;52.388;13.390;2023-02-25T04:55:41;2.91;89.55
47757;SHT35;22147;52.388;13.390;2023-02-25T04:58:11;2.81;89.74
47757;SHT35;22147;52.388;13.390;2023-02-25T05:00:41;2.76;90.20
47757;SHT35;22147;52.388;13.390;2023-02-25T05:03:17;2.83;89.76
47757;SHT35;22147;52.388;13.390;2023-02-25T05:05:47;2.78;90.05
47757;SHT35;22147;52.388;13.390;2023-02-25T05:08:17;2.87;90.21
47757;SHT35;22147;52.388;13.390;2023-02-25T05:10:48;2.91;89.96
47757;SHT35;22147;52.388;13.390;2023-02-25T05:13:20;2.76;89.83
47757;SHT35;22147;52.388;13.390;2023-02-25T05:15:50;2.71;90.17
47757;SHT35;22147;52.388;13.390;2023-02-25T05:18:20;2.71;90.06
47757;SHT35;22147;52.388;13.390;2023-02-25T05:20:52;2.77;89.88
47757;SHT35;22147;52.388;13.390;2023-02-25T05:23:22;2.76;89.73
47757;SHT35;22147;52.388;13.390;2023-02-25T05:25:53;2.76;90.05
47757;SHT35;22147;52.388;13.390;2023-02-25T05:28:23;2.84;89.47
47757;SHT35;22147;52.388;13.390;2023-02-25T05:30:51;2.90;89.16
47757;SHT35;22147;52.388;13.390;2023-02-25T05:33:20;2.78;89.58
47757;SHT35;22147;52.388;13.390;2023-02-25T05:35:49;2.81;89.38
47757;SHT35;22147;52.388;13.390;2023-02-25T05:38:16;2.73;89.26
47757;SHT35;22147;52.388;13.390;2023-02-25T05:40:45;2.64;89.61
47757;SHT35;22147;52.388;13.390;2023-02-25T05:43:13;2.60;90.10
47757;SHT35;22147;52.388;13.390;2023-02-25T05:45:42;2.58;89.80
47757;SHT35;22147;52.388;13.390;2023-02-25T05:48:10;2.57;89.99
47757;SHT35;22147;52.388;13.390;2023-02-25T05:50:39;2.54;90.20
47757;SHT35;22147;52.388;13.390;2023-02-25T05:53:08;2.41;90.44
47757;SHT35;22147;52.388;13.390;2023-02-25T05:55:41;2.41;90.94
47757;SHT35;22147;52.388;13.390;2023-02-25T05:58:12;2.37;90.94
47757;SHT35;22147;52.388;13.390;2023-02-25T06:00:42;2.50;90.84
47757;SHT35;22147;52.388;13.390;2023-02-25T06:03:12;2.49;90.27
47757;SHT35;22147;52.388;13.390;2023-02-25T06:05:42;2.44;90.81
47757;SHT35;22147;52.388;13.390;2023-02-25T06:08:16;2.43;90.48
47757;SHT35;22147;52.388;13.390;2023-02-25T06:10:46;2.32;90.80
47757;SHT35;22147;52.388;13.390;2023-02-25T06:13:16;2.16;90.87
47757;SHT35;22147;52.388;13.390;2023-02-25T06:15:46;2.22;91.37
47757;SHT35;22147;52.388;13.390;2023-02-25T06:18:16;2.25;91.14
47757;SHT35;22147;52.388;13.390;2023-02-25T06:20:46;2.13;91.13
47757;SHT35;22147;52.388;13.390;2023-02-25T06:23:15;2.06;91.45
47757;SHT35;22147;52.388;13.390;2023-02-25T06:25:43;2.18;91.23
47757;SHT35;22147;52.388;13.390;2023-02-25T06:28:11;2.11;91.03
47757;SHT35;22147;52.388;13.390;2023-02-25T06:30:40;2.03;91.24
47757;SHT35;22147;52.388;13.390;2023-02-25T06:33:08;2.05;91.29
47757;SHT35;22147;52.388;13.390;2023-02-25T06:35:36;2.02;91.32
47757;SHT35;22147;52.388;13.390;2023-02-25T06:38:05;2.02;91.32
47757;SHT35;22147;52.388;13.390;2023-02-25T06:40:33;2.13;91.10
47757;SHT35;22147;52.388;13.390;2023-02-25T06:43:02;2.11;91.06
47757;SHT35;22147;52.388;13.390;2023-02-25T06:45:31;2.13;90.98
47757;SHT35;22147;52.388;13.390;2023-02-25T06:47:58;2.09;91.11
47757;SHT35;22147;52.388;13.390;2023-02-25T06:50:27;2.03;91.29
47757;SHT35;22147;52.388;13.390;2023-02-25T06:52:57;2.06;91.43
47757;SHT35;22147;52.388;13.390;2023-02-25T06:55:27;2.09;91.22
47757;SHT35;22147;52.388;13.390;2023-02-25T06:57:55;2.11;91.34
47757;SHT35;22147;52.388;13.390;2023-02-25T07:00:24;2.06;91.31
47757;SHT35;22147;52.388;13.390;2023-02-25T07:02:52;2.03;91.13
47757;SHT35;22147;52.388;13.390;2023-02-25T07:05:20;2.11;91.46
47757;SHT35;22147;52.388;13.390;2023-02-25T07:07:49;2.08;91.44
47757;SHT35;22147;52.388;13.390;2023-02-25T07:10:17;2.30;90.38
47757;SHT35;22147;52.388;13.390;2023-02-25T07:12:46;2.23;90.48
47757;SHT35;22147;52.388;13.390;2023-02-25T07:15:14;2.20;90.65
47757;SHT35;22147;52.388;13.390;2023-02-25T07:17:42;2.32;90.61
47757;SHT35;22147;52.388;13.390;2023-02-25T07:20:11;2.26;90.34
47757;SHT35;22147;52.388;13.390;2023-02-25T07:22:40;2.29;90.70
47757;SHT35;22147;52.388;13.390;2023-02-25T07:25:13;2.29;90.70
47757;SHT35;22147;52.388;13.390;2023-02-25T07:27:43;2.40;90.66
47757;SHT35;22147;52.388;13.390;2023-02-25T07:30:14;2.50;90.69
47757;SHT35;22147;52.388;13.390;2023-02-25T07:32:44;2.54;89.92
47757;SHT35;22147;52.388;13.390;2023-02-25T07:35:14;2.67;89.73
47757;SHT35;22147;52.388;13.390;2023-02-25T07:37:44;2.57;89.56
47757;SHT35;22147;52.388;13.390;2023-02-25T07:40:14;2.47;89.98
47757;SHT35;22147;52.388;13.390;2023-02-25T07:42:45;2.44;90.05
47757;SHT35;22147;52.388;13.390;2023-02-25T07:45:15;2.56;90.37
47757;SHT35;22147;52.388;13.390;2023-02-25T07:47:46;2.65;89.52
47757;SHT35;22147;52.388;13.390;2023-02-25T07:50:16;2.53;89.92
47757;SHT35;22147;52.388;13.390;2023-02-25T07:52:46;2.56;90.22
47757;SHT35;22147;52.388;13.390;2023-02-25T07:55:16;2.39;89.89
47757;SHT35;22147;52.388;13.390;2023-02-25T07:57:46;2.41;90.34
47757;SHT35;22147;52.388;13.390;2023-02-25T08:00:17;2.60;90.04
47757;SHT35;22147;52.388;13.390;2023-02-25T08:02:47;2.50;90.10
47757;SHT35;22147;52.388;13.390;2023-02-25T08:05:17;2.58;89.93
47757;SHT35;22147;52.388;13.390;2023-02-25T08:07:50;2.50;89.61
47757;SHT35;22147;52.388;13.390;2023-02-25T08:10:21;2.50;89.88
47757;SHT35;22147;52.388;13.390;2023-02-25T08:12:51;2.53;89.81
47757;SHT35;22147;52.388;13.390;2023-02-25T08:15:21;2.50;90.03
47757;SHT35;22147;52.388;13.390;2023-02-25T08:17:51;2.49;89.99
47757;SHT35;22147;52.388;13.390;2023-02-25T08:20:21;2.46;90.04
47757;SHT35;22147;52.388;13.390;2023-02-25T08:22:51;2.62;89.89
47757;SHT35;22147;52.388;13.390;2023-02-25T08:25:21;2.47;89.65
47757;SHT35;22147;52.388;13.390;2023-02-25T08:27:52;2.33;89.36
47757;SHT35;22147;52.388;13.390;2023-02-25T08:30:25;2.40;90.12
47757;SHT35;22147;52.388;13.390;2023-02-25T08:32:56;2.44;89.82
47757;SHT35;22147;52.388;13.390;2023-02-25T08:35:26;2.44;90.04
47757;SHT35;22147;52.388;13.390;2023-02-25T08:37:56;2.43;89.40
47757;SHT35;22147;52.388;13.390;2023-02-25T08:40:26;2.50;89.54
47757;SHT35;22147;52.388;13.390;2023-02-25T08:42:57;2.49;89.16
47757;SHT35;22147;52.388;13.390;2023-02-25T08:45:27;2.60;89.65
47757;SHT35;22147;52.388;13.390;2023-02-25T08:47:57;2.53;89.40
47757;SHT35;22147;52.388;13.390;2023-02-25T08:50:26;2.57;89.58
47757;SHT35;22147;52.388;13.390;2023-02-25T08:52:54;2.74;89.45
47757;SHT35;22147;52.388;13.390;2023-02-25T08:55:24;2.73;87.69
47757;SHT35;22147;52.388;13.390;2023-02-25T08:57:54;2.74;88.71
47757;SHT35;22147;52.388;13.390;2023-02-25T09:00:23;2.69;88.09
47757;SHT35;22147;52.388;13.390;2023-02-25T09:02:51;2.53;88.39
47757;SHT35;22147;52.388;13.390;2023-02-25T09:05:20;2.54;88.47
47757;SHT35;22147;52.388;13.390;2023-02-25T09:07:49;2.62;89.12
47757;SHT35;22147;52.388;13.390;2023-02-25T09:10:20;2.62;89.18
47757;SHT35;22147;52.388;13.390;2023-02-25T09:12:50;2.65;88.70
47757;SHT35;22147;52.388;13.390;2023-02-25T09:15:20;2.65;88.47
47757;SHT35;22147;52.388;13.390;2023-02-25T09:17:50;2.53;88.59
47757;SHT35;22147;52.388;13.390;2023-02-25T09:20:21;2.54;88.75
47757;SHT35;22147;52.388;13.390;2023-02-25T09:22:53;2.58;89.25
47757;SHT35;22147;52.388;13.390;2023-02-25T09:25:26;2.58;89.36
47757;SHT35;22147;52.388;13.390;2023-02-25T09:27:58;2.61;88.96
47757;SHT35;22147;52.388;13.390;2023-02-25T09:30:28;2.58;88.23
47757;SHT35;22147;52.388;13.390;2023-02-25T09:32:58;2.67;88.57
47757;SHT35;22147;52.388;13.390;2023-02-25T09:35:29;2.69;88.05
47757;SHT35;22147;52.388;13.390;2023-02-25T09:37:59;2.67;87.92
47757;SHT35;22147;52.388;13.390;2023-02-25T09:40:29;2.60;88.35
47757;SHT35;22147;52.388;13.390;2023-02-25T09:43:39;2.61;87.81
47757;SHT35;22147;52.388;13.390;2023-02-25T09:46:17;2.85;88.65
47757;SHT35;22147;52.388;13.390;2023-02-25T09:49:17;2.91;86.90
47757;SHT35;22147;52.388;13.390;2023-02-25T09:55:19;3.32;86.88
47757;SHT35;22147;52.388;13.390;2023-02-25T10:01:34;3.16;85.33
47757;SHT35;22147;52.388;13.390;2023-02-25T10:04:54;3.15;85.36
47757;SHT35;22147;52.388;13.390;2023-02-25T10:07:52;3.18;86.15
47757;SHT35;22147;52.388;13.390;2023-02-25T10:10:54;3.44;87.22
47757;SHT35;22147;52.388;13.390;2023-02-25T10:17:04;3.52;86.70
47757;SHT35;22147;52.388;13.390;2023-02-25T10:25:56;3.26;85.10
47757;SHT35;22147;52.388;13.390;2023-02-25T10:28:30;3.30;85.60
47757;SHT35;22147;52.388;13.390;2023-02-25T10:31:16;2.94;85.90
47757;SHT35;22147;52.388;13.390;2023-02-25T10:33:52;2.60;86.69
47757;SHT35;22147;52.388;13.390;2023-02-25T10:36:44;1.86;87.45
47757;SHT35;22147;52.388;13.390;2023-02-25T10:39:16;1.58;88.67
47757;SHT35;22147;52.388;13.390;2023-02-25T10:41:46;1.50;89.12
47757;SHT35;22147;52.388;13.390;2023-02-25T10:44:18;1.48;89.93
47757;SHT35;22147;52.388;13.390;2023-02-25T10:47:03;1.36;90.45
47757;SHT35;22147;52.388;13.390;2023-02-25T10:49:34;1.40;90.91
47757;SHT35;22147;52.388;13.390;2023-02-25T10:52:18;1.42;90.81
47757;SHT35;22147;52.388;13.390;2023-02-25T10:54:52;1.27;90.96
47757;SHT35;22147;52.388;13.390;2023-02-25T10:57:38;1.24;91.50
47757;SHT35;22147;52.388;13.390;2023-02-25T11:00:30;1.34;91.63
47757;SHT35;22147;52.388;13.390;2023-02-25T11:03:04;1.53;91.79
47757;SHT35;22147;52.388;13.390;2023-02-25T11:05:41;1.67;91.80
47757;SHT35;22147;52.388;13.390;2023-02-25T11:08:32;1.95;91.47
47757;SHT35;22147;52.388;13.390;2023-02-25T11:11:25;2.09;91.13
47757;SHT35;22147;52.388;13.390;2023-02-25T11:14:04;2.30;90.69
47757;SHT35;22147;52.388;13.390;2023-02-25T11:16:39;2.64;90.35
47757;SHT35;22147;52.388;13.390;2023-02-25T11:19:31;2.81;89.48
47757;SHT35;22147;52.388;13.390;2023-02-25T11:22:34;3.09;89.46
47757;SHT35;22147;52.388;13.390;2023-02-25T11:25:18;3.16;88.12
47757;SHT35;22147;52.388;13.390;2023-02-25T11:27:57;3.16;87.71
47757;SHT35;22147;52.388;13.390;2023-02-25T11:30:39;2.88;87.06
47757;SHT35;22147;52.388;13.390;2023-02-25T11:33:42;2.87;86.96
47757;SHT35;22147;52.388;13.390;2023-02-25T11:36:21;2.90;87.52
47757;SHT35;22147;52.388;13.390;2023-02-25T11:39:26;2.88;88.31
47757;SHT35;22147;52.388;13.390;2023-02-25T11:42:22;2.99;87.03
47757;SHT35;22147;52.388;13.390;2023-02-25T11:45:03;3.22;86.93
47757;SHT35;22147;52.388;13.390;2023-02-25T11:47:37;3.32;86.85
47757;SHT35;22147;52.388;13.390;2023-02-25T11:50:25;3.33;85.92
47757;SHT35;22147;52.388;13.390;2023-02-25T11:53:09;3.36;86.15
47757;SHT35;22147;52.388;13.390;2023-02-25T11:56:23;3.33;85.06
47757;SHT35;22147;52.388;13.390;2023-02-25T12:05:58;2.98;85.60
47757;SHT35;22147;52.388;13.390;2023-02-25T12:21:39;2.09;88.20
47757;SHT35;22147;52.388;13.390;2023-02-25T12:31:31;1.72;90.28
47757;SHT35;22147;52.388;13.390;2023-02-25T12:35:13;1.97;90.31
47757;SHT35;22147;52.388;13.390;2023-02-25T12:38:27;2.16;89.34
47757;SHT35;22147;52.388;13.390;2023-02-25T13:10:04;1.79;87.60
47757;SHT35;22147;52.388;13.390;2023-02-25T13:24:57;2.28;87.37
47757;SHT35;22147;52.388;13.390;2023-02-25T13:30:34;2.08;86.87
47757;SHT35;22147;52.388;13.390;2023-02-25T13:40:15;2.09;86.91
47757;SHT35;22147;52.388;13.390;2023-02-25T13:43:20;2.09;85.92
47757;SHT35;22147;52.388;13.390;2023-02-25T13:47:00;2.33;84.72
47757;SHT35;22147;52.388;13.390;2023-02-25T13:56:31;2.34;83.86
47757;SHT35;22147;52.388;13.390;2023-02-25T13:59:50;2.36;84.39
47757;SHT35;22147;52.388;13.390;2023-02-25T14:03:38;2.36;83.87
47757;SHT35;22147;52.388;13.390;2023-02-25T14:06:28;2.37;84.06
47757;SHT35;22147;52.388;13.390;2023-02-25T14:09:23;2.16;84.68
47757;SHT35;22147;52.388;13.390;2023-02-25T14:12:26;2.08;85.28
47757;SHT35;22147;52.388;13.390;2023-02-25T14:15:19;2.12;86.09
47757;SHT35;22147;52.388;13.390;2023-02-25T14:18:36;2.08;85.63
47757;SHT35;22147;52.388;13.390;2023-02-25T14:21:53;2.02;85.54
47757;SHT35;22147;52.388;13.390;2023-02-25T14:25:32;2.02;86.23
47757;SHT35;22147;52.388;13.390;2023-02-25T14:34:32;2.06;85.34
47757;SHT35;22147;52.388;13.390;2023-02-25T14:43:36;1.86;83.66
47757;SHT35;22147;52.388;13.390;2023-02-25T14:46:53;1.92;83.91
47757;SHT35;22147;52.388;13.390;2023-02-25T14:50:32;1.99;83.44
47757;SHT35;22147;52.388;13.390;2023-02-25T14:57:28;2.01;83.74
47757;SHT35;22147;52.388;13.390;2023-02-25T15:00:41;2.13;82.52
47757;SHT35;22147;52.388;13.390;2023-02-25T15:17:02;2.23;81.61
47757;SHT35;22147;52.388;13.390;2023-02-25T15:22:30;2.15;80.72
47757;SHT35;22147;52.388;13.390;2023-02-25T15:28:43;2.19;80.10
47757;SHT35;22147;52.388;13.390;2023-02-25T15:31:29;2.23;78.95
47757;SHT35;22147;52.388;13.390;2023-02-25T15:34:34;2.15;79.95
47757;SHT35;22147;52.388;13.390;2023-02-25T15:42:56;2.12;76.40
47757;SHT35;22147;52.388;13.390;2023-02-25T16:06:39;1.99;78.32
47757;SHT35;22147;52.388;13.390;2023-02-25T16:09:16;1.91;77.42
47757;SHT35;22147;52.388;13.390;2023-02-25T16:12:05;1.92;78.79
47757;SHT35;22147;52.388;13.390;2023-02-25T16:14:39;1.77;80.36
47757;SHT35;22147;52.388;13.390;2023-02-25T16:17:33;1.71;82.17
47757;SHT35;22147;52.388;13.390;2023-02-25T16:20:37;1.61;84.44
47757;SHT35;22147;52.388;13.390;2023-02-25T16:23:17;1.37;86.05
47757;SHT35;22147;52.388;13.390;2023-02-25T16:26:08;1.24;87.30
47757;SHT35;22147;52.388;13.390;2023-02-25T16:35:40;0.99;88.80
47757;SHT35;22147;52.388;13.390;2023-02-25T16:41:14;0.93;87.93
47757;SHT35;22147;52.388;13.390;2023-02-25T16:43:46;0.91;87.24
47757;SHT35;22147;52.388;13.390;2023-02-25T16:46:28;0.95;87.34
47757;SHT35;22147;52.388;13.390;2023-02-25T16:49:07;0.86;87.32
47757;SHT35;22147;52.388;13.390;2023-02-25T16:51:44;0.84;87.45
47757;SHT35;22147;52.388;13.390;2023-02-25T16:54:30;0.86;86.90
47757;SHT35;22147;52.388;13.390;2023-02-25T16:57:06;0.85;86.60
47757;SHT35;22147;52.388;13.390;2023-02-25T16:59:37;0.89;86.16
47757;SHT35;22147;52.388;13.390;2023-02-25T17:04:52;0.93;85.72
47757;SHT35;22147;52.388;13.390;2023-02-25T17:07:27;0.86;84.79
47757;SHT35;22147;52.388;13.390;2023-02-25T17:10:03;0.96;85.40
47757;SHT35;22147;52.388;13.390;2023-02-25T17:12:42;0.85;85.34
47757;SHT35;22147;52.388;13.390;2023-02-25T17:15:28;0.88;85.41
47757;SHT35;22147;52.388;13.390;2023-02-25T17:20:46;0.95;84.85
47757;SHT35;22147;52.388;13.390;2023-02-25T17:23:17;0.99;84.75
47757;SHT35;22147;52.388;13.390;2023-02-25T17:25:48;0.91;85.30
47757;SHT35;22147;52.388;13.390;2023-02-25T17:28:27;0.89;85.18
47757;SHT35;22147;52.388;13.390;2023-02-25T17:31:17;1.03;85.56
47757;SHT35;22147;52.388;13.390;2023-02-25T17:34:03;0.95;84.92
47757;SHT35;22147;52.388;13.390;2023-02-25T17:36:38;0.86;85.01
47757;SHT35;22147;52.388;13.390;2023-02-25T17:39:18;0.91;84.79
47757;SHT35;22147;52.388;13.390;2023-02-25T17:41:49;0.92;85.16
47757;SHT35;22147;52.388;13.390;2023-02-25T17:47:18;0.88;84.83
47757;SHT35;22147;52.388;13.390;2023-02-25T17:49:50;0.86;84.52
47757;SHT35;22147;52.388;13.390;2023-02-25T17:52:30;0.79;84.12
47757;SHT35;22147;52.388;13.390;2023-02-25T17:55:06;0.82;84.22
47757;SHT35;22147;52.388;13.390;2023-02-25T17:57:53;0.76;84.20
47757;SHT35;22147;52.388;13.390;2023-02-25T18:00:35;0.81;83.59
47757;SHT35;22147;52.388;13.390;2023-02-25T18:03:22;0.81;83.75
47757;SHT35;22147;52.388;13.390;2023-02-25T18:05:59;0.78;84.08
47757;SHT35;22147;52.388;13.390;2023-02-25T18:08:54;0.71;84.08
47757;SHT35;22147;52.388;13.390;2023-02-25T18:11:38;0.71;84.38
47757;SHT35;22147;52.388;13.390;2023-02-25T18:14:43;0.65;85.09
47757;SHT35;22147;52.388;13.390;2023-02-25T18:17:31;0.65;85.43
47757;SHT35;22147;52.388;13.390;2023-02-25T18:20:39;0.58;85.94
47757;SHT35;22147;52.388;13.390;2023-02-25T18:26:15;0.66;86.25
47757;SHT35;22147;52.388;13.390;2023-02-25T18:28:44;0.65;86.65
47757;SHT35;22147;52.388;13.390;2023-02-25T18:31:14;0.54;87.03
47757;SHT35;22147;52.388;13.390;2023-02-25T18:33:46;0.61;87.31
47757;SHT35;22147;52.388;13.390;2023-02-25T18:36:26;0.61;87.39
47757;SHT35;22147;52.388;13.390;2023-02-25T18:39:03;0.54;87.78
47757;SHT35;22147;52.388;13.390;2023-02-25T18:41:32;0.47;88.17
47757;SHT35;22147;52.388;13.390;2023-02-25T18:44:01;0.47;88.41
47757;SHT35;22147;52.388;13.390;2023-02-25T18:46:29;0.40;88.97
47757;SHT35;22147;52.388;13.390;2023-02-25T18:48:58;0.41;88.89
47757;SHT35;22147;52.388;13.390;2023-02-25T18:51:26;0.40;89.12
47757;SHT35;22147;52.388;13.390;2023-02-25T18:53:55;0.45;89.23
47757;SHT35;22147;52.388;13.390;2023-02-25T18:56:23;0.51;88.60
47757;SHT35;22147;52.388;13.390;2023-02-25T18:58:52;0.48;88.15
47757;SHT35;22147;52.388;13.390;2023-02-25T19:01:31;0.43;88.03
47757;SHT35;22147;52.388;13.390;2023-02-25T19:04:00;0.43;88.29
47757;SHT35;22147;52.388;13.390;2023-02-25T19:06:30;0.48;88.18
47757;SHT35;22147;52.388;13.390;2023-02-25T19:09:02;0.53;87.56
47757;SHT35;22147;52.388;13.390;2023-02-25T19:11:35;0.38;87.84
47757;SHT35;22147;52.388;13.390;2023-02-25T19:14:06;0.43;88.45
47757;SHT35;22147;52.388;13.390;2023-02-25T19:16:37;0.37;88.06
47757;SHT35;22147;52.388;13.390;2023-02-25T19:19:06;0.41;88.54
47757;SHT35;22147;52.388;13.390;2023-02-25T19:21:36;0.41;88.51
47757;SHT35;22147;52.388;13.390;2023-02-25T19:24:11;0.45;88.38
47757;SHT35;22147;52.388;13.390;2023-02-25T19:26:40;0.41;88.52
47757;SHT35;22147;52.388;13.390;2023-02-25T19:29:10;0.55;88.29
47757;SHT35;22147;52.388;13.390;2023-02-25T19:31:40;0.48;87.82
47757;SHT35;22147;52.388;13.390;2023-02-25T19:34:10;0.50;87.39
47757;SHT35;22147;52.388;13.390;2023-02-25T19:36:40;0.48;86.92
47757;SHT35;22147;52.388;13.390;2023-02-25T19:39:09;0.41;87.15
47757;SHT35;22147;52.388;13.390;2023-02-25T19:41:37;0.45;86.64
47757;SHT35;22147;52.388;13.390;2023-02-25T19:44:06;0.43;86.09
47757;SHT35;22147;52.388;13.390;2023-02-25T19:46:34;0.45;85.98
47757;SHT35;22147;52.388;13.390;2023-02-25T19:49:02;0.51;85.84
47757;SHT35;22147;52.388;13.390;2023-02-25T19:51:31;0.48;84.80
47757;SHT35;22147;52.388;13.390;2023-02-25T19:53:59;0.57;84.84
47757;SHT35;22147;52.388;13.390;2023-02-25T19:56:28;0.60;84.79
47757;SHT35;22147;52.388;13.390;2023-02-25T19:58:57;0.51;84.76
47757;SHT35;22147;52.388;13.390;2023-02-25T20:01:25;0.48;84.42
47757;SHT35;22147;52.388;13.390;2023-02-25T20:03:56;0.44;84.74
47757;SHT35;22147;52.388;13.390;2023-02-25T20:06:24;0.57;84.49